Terminal Aerodrome Forecast
Issued by NWS

Home | Current Version | Previous Version | Text Only | Print | Product List | Glossary On
Versions: 1 2 3 4 5 6 7 8 9 10 11 12 13 14 15 16 17
400
FTUS42 KFFC 231738
TAFPDK
TAF
KPDK 231738Z 2318/2418 26009G18KT P6SM SCT025 BKN035
      TEMPO 2318/2320 BKN025
     FM232100 28010G20KT P6SM SCT025 SCT040
     FM240100 29008KT P6SM FEW040
     FM240400 27004KT P6SM SKC
     FM241400 28008KT P6SM SKC
     FM241600 29010G20KT P6SM FEW040=

USA.gov is the U.S. government's official web portal to all federal, state and local government web resources and services.